sensor_id;sensor_type;location;lat;lon;timestamp;P1;durP1;ratioP1;P2;durP2;ratioP2
11313;SDS011;5712;48.858;9.206;2023-09-19T00:02:02;1.27;;;1.00;;
11313;SDS011;5712;48.858;9.206;2023-09-19T00:04:30;1.83;;;0.93;;
11313;SDS011;5712;48.858;9.206;2023-09-19T00:06:57;1.03;;;0.80;;
11313;SDS011;5712;48.858;9.206;2023-09-19T00:09:24;0.93;;;0.73;;
11313;SDS011;5712;48.858;9.206;2023-09-19T00:11:52;2.03;;;0.97;;
11313;SDS011;5712;48.858;9.206;2023-09-19T00:14:19;1.57;;;0.80;;
11313;SDS011;5712;48.858;9.206;2023-09-19T00:16:49;1.67;;;0.90;;
11313;SDS011;5712;48.858;9.206;2023-09-19T00:19:17;1.40;;;0.77;;
11313;SDS011;5712;48.858;9.206;2023-09-19T00:21:43;0.97;;;0.80;;
11313;SDS011;5712;48.858;9.206;2023-09-19T00:24:10;2.27;;;0.90;;
11313;SDS011;5712;48.858;9.206;2023-09-19T00:26:37;0.97;;;0.77;;
11313;SDS011;5712;48.858;9.206;2023-09-19T00:29:04;1.00;;;0.90;;
11313;SDS011;5712;48.858;9.206;2023-09-19T00:31:33;0.73;;;0.70;;
11313;SDS011;5712;48.858;9.206;2023-09-19T00:34:02;1.20;;;0.77;;
11313;SDS011;5712;48.858;9.206;2023-09-19T00:36:36;1.10;;;0.90;;
11313;SDS011;5712;48.858;9.206;2023-09-19T00:39:03;1.53;;;1.00;;
11313;SDS011;5712;48.858;9.206;2023-09-19T00:41:31;1.00;;;0.67;;
11313;SDS011;5712;48.858;9.206;2023-09-19T00:43:57;0.80;;;0.80;;
11313;SDS011;5712;48.858;9.206;2023-09-19T00:46:25;0.83;;;0.80;;
11313;SDS011;5712;48.858;9.206;2023-09-19T00:48:52;1.07;;;0.90;;
11313;SDS011;5712;48.858;9.206;2023-09-19T00:51:18;0.80;;;0.80;;
11313;SDS011;5712;48.858;9.206;2023-09-19T00:53:48;1.20;;;0.80;;
11313;SDS011;5712;48.858;9.206;2023-09-19T00:56:15;2.50;;;0.80;;
11313;SDS011;5712;48.858;9.206;2023-09-19T00:58:43;1.03;;;0.73;;
11313;SDS011;5712;48.858;9.206;2023-09-19T01:01:11;1.73;;;1.10;;
11313;SDS011;5712;48.858;9.206;2023-09-19T01:03:39;0.90;;;0.77;;
11313;SDS011;5712;48.858;9.206;2023-09-19T01:06:06;0.70;;;0.70;;
11313;SDS011;5712;48.858;9.206;2023-09-19T01:08:33;1.00;;;0.87;;
11313;SDS011;5712;48.858;9.206;2023-09-19T01:11:03;1.27;;;0.70;;
11313;SDS011;5712;48.858;9.206;2023-09-19T01:13:38;2.53;;;0.70;;
11313;SDS011;5712;48.858;9.206;2023-09-19T01:16:16;0.73;;;0.67;;
11313;SDS011;5712;48.858;9.206;2023-09-19T01:18:50;1.90;;;0.80;;
11313;SDS011;5712;48.858;9.206;2023-09-19T01:21:22;1.43;;;0.70;;
11313;SDS011;5712;48.858;9.206;2023-09-19T01:24:10;1.53;;;0.90;;
11313;SDS011;5712;48.858;9.206;2023-09-19T01:27:17;0.87;;;0.70;;
11313;SDS011;5712;48.858;9.206;2023-09-19T01:30:07;0.87;;;0.67;;
11313;SDS011;5712;48.858;9.206;2023-09-19T01:32:35;0.70;;;0.67;;
11313;SDS011;5712;48.858;9.206;2023-09-19T01:35:03;1.00;;;0.70;;
11313;SDS011;5712;48.858;9.206;2023-09-19T01:37:30;0.83;;;0.80;;
11313;SDS011;5712;48.858;9.206;2023-09-19T01:39:57;0.93;;;0.70;;
11313;SDS011;5712;48.858;9.206;2023-09-19T01:42:37;0.70;;;0.70;;
11313;SDS011;5712;48.858;9.206;2023-09-19T01:45:11;1.33;;;0.80;;
11313;SDS011;5712;48.858;9.206;2023-09-19T01:47:41;0.90;;;0.70;;
11313;SDS011;5712;48.858;9.206;2023-09-19T01:50:17;1.07;;;0.63;;
11313;SDS011;5712;48.858;9.206;2023-09-19T01:52:51;1.13;;;0.80;;
11313;SDS011;5712;48.858;9.206;2023-09-19T01:55:23;1.00;;;0.67;;
11313;SDS011;5712;48.858;9.206;2023-09-19T01:57:58;0.70;;;0.70;;
11313;SDS011;5712;48.858;9.206;2023-09-19T02:00:32;1.50;;;0.70;;
11313;SDS011;5712;48.858;9.206;2023-09-19T02:03:00;1.00;;;0.77;;
11313;SDS011;5712;48.858;9.206;2023-09-19T02:05:28;1.87;;;0.73;;
11313;SDS011;5712;48.858;9.206;2023-09-19T02:07:55;1.30;;;0.70;;
11313;SDS011;5712;48.858;9.206;2023-09-19T02:10:23;1.00;;;0.63;;
11313;SDS011;5712;48.858;9.206;2023-09-19T02:12:50;1.17;;;1.07;;
11313;SDS011;5712;48.858;9.206;2023-09-19T02:15:16;1.27;;;0.87;;
11313;SDS011;5712;48.858;9.206;2023-09-19T02:17:44;2.53;;;0.87;;
11313;SDS011;5712;48.858;9.206;2023-09-19T02:20:11;1.90;;;0.90;;
11313;SDS011;5712;48.858;9.206;2023-09-19T02:22:39;0.83;;;0.70;;
11313;SDS011;5712;48.858;9.206;2023-09-19T02:25:06;0.70;;;0.67;;
11313;SDS011;5712;48.858;9.206;2023-09-19T02:27:34;0.60;;;0.60;;
11313;SDS011;5712;48.858;9.206;2023-09-19T02:30:00;1.20;;;0.77;;
11313;SDS011;5712;48.858;9.206;2023-09-19T02:32:29;1.07;;;0.90;;
11313;SDS011;5712;48.858;9.206;2023-09-19T02:34:57;1.37;;;0.83;;
11313;SDS011;5712;48.858;9.206;2023-09-19T02:37:24;0.90;;;0.67;;
11313;SDS011;5712;48.858;9.206;2023-09-19T02:39:51;0.80;;;0.70;;
11313;SDS011;5712;48.858;9.206;2023-09-19T02:42:17;0.70;;;0.70;;
11313;SDS011;5712;48.858;9.206;2023-09-19T02:44:44;0.80;;;0.60;;
11313;SDS011;5712;48.858;9.206;2023-09-19T02:47:12;0.83;;;0.70;;
11313;SDS011;5712;48.858;9.206;2023-09-19T02:49:40;1.83;;;0.80;;
11313;SDS011;5712;48.858;9.206;2023-09-19T02:52:08;1.17;;;0.73;;
11313;SDS011;5712;48.858;9.206;2023-09-19T02:54:36;1.03;;;0.60;;
11313;SDS011;5712;48.858;9.206;2023-09-19T02:57:03;1.27;;;0.80;;
11313;SDS011;5712;48.858;9.206;2023-09-19T02:59:31;1.57;;;0.83;;
11313;SDS011;5712;48.858;9.206;2023-09-19T03:01:58;1.50;;;0.77;;
11313;SDS011;5712;48.858;9.206;2023-09-19T03:04:25;0.87;;;0.73;;
11313;SDS011;5712;48.858;9.206;2023-09-19T03:06:53;1.27;;;0.83;;
11313;SDS011;5712;48.858;9.206;2023-09-19T03:09:25;0.67;;;0.67;;
11313;SDS011;5712;48.858;9.206;2023-09-19T03:11:51;2.33;;;0.93;;
11313;SDS011;5712;48.858;9.206;2023-09-19T03:14:18;1.03;;;0.90;;
11313;SDS011;5712;48.858;9.206;2023-09-19T03:16:45;0.70;;;0.70;;
11313;SDS011;5712;48.858;9.206;2023-09-19T03:19:12;0.80;;;0.77;;
11313;SDS011;5712;48.858;9.206;2023-09-19T03:21:40;0.77;;;0.70;;
11313;SDS011;5712;48.858;9.206;2023-09-19T03:24:06;1.67;;;0.90;;
11313;SDS011;5712;48.858;9.206;2023-09-19T03:26:35;1.00;;;0.90;;
11313;SDS011;5712;48.858;9.206;2023-09-19T03:29:03;1.17;;;1.00;;
11313;SDS011;5712;48.858;9.206;2023-09-19T03:31:32;1.77;;;0.90;;
11313;SDS011;5712;48.858;9.206;2023-09-19T03:34:02;1.23;;;0.80;;
11313;SDS011;5712;48.858;9.206;2023-09-19T03:36:29;1.30;;;0.80;;
11313;SDS011;5712;48.858;9.206;2023-09-19T03:38:56;1.57;;;0.87;;
11313;SDS011;5712;48.858;9.206;2023-09-19T03:41:22;0.60;;;0.60;;
11313;SDS011;5712;48.858;9.206;2023-09-19T03:43:50;0.73;;;0.73;;
11313;SDS011;5712;48.858;9.206;2023-09-19T03:46:18;0.70;;;0.60;;
11313;SDS011;5712;48.858;9.206;2023-09-19T03:48:44;1.97;;;1.00;;
11313;SDS011;5712;48.858;9.206;2023-09-19T03:51:11;1.20;;;0.90;;
11313;SDS011;5712;48.858;9.206;2023-09-19T03:53:37;1.47;;;1.03;;
11313;SDS011;5712;48.858;9.206;2023-09-19T03:56:04;1.63;;;0.73;;
11313;SDS011;5712;48.858;9.206;2023-09-19T03:58:31;1.47;;;0.80;;
11313;SDS011;5712;48.858;9.206;2023-09-19T04:01:01;0.83;;;0.83;;
11313;SDS011;5712;48.858;9.206;2023-09-19T04:03:28;1.37;;;1.00;;
11313;SDS011;5712;48.858;9.206;2023-09-19T04:06:00;1.33;;;1.10;;
11313;SDS011;5712;48.858;9.206;2023-09-19T04:08:27;1.40;;;0.90;;
11313;SDS011;5712;48.858;9.206;2023-09-19T04:10:54;1.53;;;0.90;;
11313;SDS011;5712;48.858;9.206;2023-09-19T04:13:21;1.43;;;0.90;;
11313;SDS011;5712;48.858;9.206;2023-09-19T04:15:48;1.70;;;0.80;;
11313;SDS011;5712;48.858;9.206;2023-09-19T04:18:16;1.67;;;1.00;;
11313;SDS011;5712;48.858;9.206;2023-09-19T04:20:47;1.40;;;1.03;;
11313;SDS011;5712;48.858;9.206;2023-09-19T04:23:14;1.33;;;1.23;;
11313;SDS011;5712;48.858;9.206;2023-09-19T04:25:40;2.17;;;1.13;;
11313;SDS011;5712;48.858;9.206;2023-09-19T04:28:07;1.23;;;1.00;;
11313;SDS011;5712;48.858;9.206;2023-09-19T04:30:35;1.47;;;1.20;;
11313;SDS011;5712;48.858;9.206;2023-09-19T04:33:02;2.83;;;1.20;;
11313;SDS011;5712;48.858;9.206;2023-09-19T04:35:30;1.77;;;1.27;;
11313;SDS011;5712;48.858;9.206;2023-09-19T04:37:57;1.70;;;1.20;;
11313;SDS011;5712;48.858;9.206;2023-09-19T04:40:24;2.83;;;1.27;;
11313;SDS011;5712;48.858;9.206;2023-09-19T04:42:52;1.47;;;1.20;;
11313;SDS011;5712;48.858;9.206;2023-09-19T04:45:21;1.83;;;1.33;;
11313;SDS011;5712;48.858;9.206;2023-09-19T04:47:48;1.13;;;0.97;;
11313;SDS011;5712;48.858;9.206;2023-09-19T04:50:14;1.27;;;1.13;;
11313;SDS011;5712;48.858;9.206;2023-09-19T04:52:43;2.20;;;1.17;;
11313;SDS011;5712;48.858;9.206;2023-09-19T04:55:10;2.47;;;1.17;;
11313;SDS011;5712;48.858;9.206;2023-09-19T04:57:42;1.07;;;0.87;;
11313;SDS011;5712;48.858;9.206;2023-09-19T05:00:10;1.23;;;1.13;;
11313;SDS011;5712;48.858;9.206;2023-09-19T05:02:39;1.60;;;1.37;;
11313;SDS011;5712;48.858;9.206;2023-09-19T05:05:06;1.53;;;1.27;;
11313;SDS011;5712;48.858;9.206;2023-09-19T05:07:34;2.00;;;1.33;;
11313;SDS011;5712;48.858;9.206;2023-09-19T05:10:02;1.40;;;1.30;;
11313;SDS011;5712;48.858;9.206;2023-09-19T05:12:32;1.97;;;1.30;;
11313;SDS011;5712;48.858;9.206;2023-09-19T05:14:59;1.73;;;1.30;;
11313;SDS011;5712;48.858;9.206;2023-09-19T05:17:26;2.53;;;1.30;;
11313;SDS011;5712;48.858;9.206;2023-09-19T05:19:53;1.60;;;1.23;;
11313;SDS011;5712;48.858;9.206;2023-09-19T05:22:19;2.13;;;1.20;;
11313;SDS011;5712;48.858;9.206;2023-09-19T05:24:46;1.80;;;1.50;;
11313;SDS011;5712;48.858;9.206;2023-09-19T05:27:14;2.47;;;1.50;;
11313;SDS011;5712;48.858;9.206;2023-09-19T05:29:41;1.40;;;1.30;;
11313;SDS011;5712;48.858;9.206;2023-09-19T05:32:09;2.63;;;1.43;;
11313;SDS011;5712;48.858;9.206;2023-09-19T05:34:35;2.50;;;1.40;;
11313;SDS011;5712;48.858;9.206;2023-09-19T05:37:03;1.60;;;1.43;;
11313;SDS011;5712;48.858;9.206;2023-09-19T05:39:30;4.10;;;2.83;;
11313;SDS011;5712;48.858;9.206;2023-09-19T05:41:56;1.83;;;1.53;;
11313;SDS011;5712;48.858;9.206;2023-09-19T05:44:24;2.83;;;1.73;;
11313;SDS011;5712;48.858;9.206;2023-09-19T05:46:51;1.57;;;1.47;;
11313;SDS011;5712;48.858;9.206;2023-09-19T05:49:18;1.97;;;1.53;;
11313;SDS011;5712;48.858;9.206;2023-09-19T05:51:46;2.53;;;1.43;;
11313;SDS011;5712;48.858;9.206;2023-09-19T05:54:13;2.50;;;1.90;;
11313;SDS011;5712;48.858;9.206;2023-09-19T05:56:40;1.97;;;1.70;;
11313;SDS011;5712;48.858;9.206;2023-09-19T05:59:06;3.00;;;1.83;;
11313;SDS011;5712;48.858;9.206;2023-09-19T06:01:35;2.13;;;1.80;;
11313;SDS011;5712;48.858;9.206;2023-09-19T06:04:01;2.73;;;1.70;;
11313;SDS011;5712;48.858;9.206;2023-09-19T06:06:29;2.63;;;1.43;;
11313;SDS011;5712;48.858;9.206;2023-09-19T06:08:56;3.03;;;1.73;;
11313;SDS011;5712;48.858;9.206;2023-09-19T06:11:22;2.87;;;1.77;;
11313;SDS011;5712;48.858;9.206;2023-09-19T06:13:51;3.03;;;1.87;;
11313;SDS011;5712;48.858;9.206;2023-09-19T06:16:18;2.33;;;1.90;;
11313;SDS011;5712;48.858;9.206;2023-09-19T06:18:46;2.10;;;1.90;;
11313;SDS011;5712;48.858;9.206;2023-09-19T06:21:17;2.57;;;1.83;;
11313;SDS011;5712;48.858;9.206;2023-09-19T06:23:44;2.53;;;1.80;;
11313;SDS011;5712;48.858;9.206;2023-09-19T06:26:11;2.53;;;1.90;;
11313;SDS011;5712;48.858;9.206;2023-09-19T06:28:38;3.23;;;1.97;;
11313;SDS011;5712;48.858;9.206;2023-09-19T06:31:05;2.40;;;2.20;;
11313;SDS011;5712;48.858;9.206;2023-09-19T06:33:34;2.63;;;1.93;;
11313;SDS011;5712;48.858;9.206;2023-09-19T06:36:04;2.83;;;2.07;;
11313;SDS011;5712;48.858;9.206;2023-09-19T06:38:31;2.37;;;1.90;;
11313;SDS011;5712;48.858;9.206;2023-09-19T06:40:59;2.43;;;1.80;;
11313;SDS011;5712;48.858;9.206;2023-09-19T06:43:29;2.00;;;1.60;;
11313;SDS011;5712;48.858;9.206;2023-09-19T06:45:57;3.40;;;1.93;;
11313;SDS011;5712;48.858;9.206;2023-09-19T06:48:24;3.47;;;2.10;;
11313;SDS011;5712;48.858;9.206;2023-09-19T06:50:52;5.43;;;2.00;;
11313;SDS011;5712;48.858;9.206;2023-09-19T06:53:21;2.20;;;1.73;;
11313;SDS011;5712;48.858;9.206;2023-09-19T06:55:48;2.07;;;1.60;;
11313;SDS011;5712;48.858;9.206;2023-09-19T06:58:15;3.27;;;1.87;;
11313;SDS011;5712;48.858;9.206;2023-09-19T07:00:42;6.07;;;2.30;;
11313;SDS011;5712;48.858;9.206;2023-09-19T07:03:09;5.67;;;2.10;;
11313;SDS011;5712;48.858;9.206;2023-09-19T07:05:37;2.30;;;1.90;;
11313;SDS011;5712;48.858;9.206;2023-09-19T07:08:05;2.93;;;1.87;;
11313;SDS011;5712;48.858;9.206;2023-09-19T07:10:33;2.27;;;1.60;;
11313;SDS011;5712;48.858;9.206;2023-09-19T07:13:00;2.83;;;2.07;;
11313;SDS011;5712;48.858;9.206;2023-09-19T07:15:29;3.77;;;1.80;;
11313;SDS011;5712;48.858;9.206;2023-09-19T07:18:00;5.07;;;2.23;;
11313;SDS011;5712;48.858;9.206;2023-09-19T07:20:27;6.30;;;2.20;;
11313;SDS011;5712;48.858;9.206;2023-09-19T07:22:56;3.23;;;1.97;;
11313;SDS011;5712;48.858;9.206;2023-09-19T07:25:24;3.17;;;2.00;;
11313;SDS011;5712;48.858;9.206;2023-09-19T07:27:52;2.67;;;1.80;;
11313;SDS011;5712;48.858;9.206;2023-09-19T07:30:21;2.27;;;1.90;;
11313;SDS011;5712;48.858;9.206;2023-09-19T07:32:48;3.87;;;1.80;;
11313;SDS011;5712;48.858;9.206;2023-09-19T07:35:14;4.10;;;1.77;;
11313;SDS011;5712;48.858;9.206;2023-09-19T07:37:41;2.73;;;1.80;;
11313;SDS011;5712;48.858;9.206;2023-09-19T07:40:08;2.60;;;1.63;;
11313;SDS011;5712;48.858;9.206;2023-09-19T07:42:35;2.57;;;1.50;;
11313;SDS011;5712;48.858;9.206;2023-09-19T07:45:07;1.70;;;1.60;;
11313;SDS011;5712;48.858;9.206;2023-09-19T07:47:34;2.83;;;1.60;;
11313;SDS011;5712;48.858;9.206;2023-09-19T07:50:01;2.53;;;1.70;;
11313;SDS011;5712;48.858;9.206;2023-09-19T07:52:27;2.37;;;1.40;;
11313;SDS011;5712;48.858;9.206;2023-09-19T07:54:54;2.70;;;1.40;;
11313;SDS011;5712;48.858;9.206;2023-09-19T07:57:22;2.00;;;1.47;;
11313;SDS011;5712;48.858;9.206;2023-09-19T07:59:49;2.00;;;1.60;;
11313;SDS011;5712;48.858;9.206;2023-09-19T08:02:17;2.83;;;1.50;;
11313;SDS011;5712;48.858;9.206;2023-09-19T08:04:44;3.73;;;1.40;;
11313;SDS011;5712;48.858;9.206;2023-09-19T08:07:11;2.13;;;1.60;;
11313;SDS011;5712;48.858;9.206;2023-09-19T08:09:41;1.80;;;1.40;;
11313;SDS011;5712;48.858;9.206;2023-09-19T08:12:11;3.97;;;1.57;;
11313;SDS011;5712;48.858;9.206;2023-09-19T08:14:37;1.83;;;1.40;;
11313;SDS011;5712;48.858;9.206;2023-09-19T08:17:06;2.17;;;1.37;;
11313;SDS011;5712;48.858;9.206;2023-09-19T08:19:35;2.90;;;1.30;;
11313;SDS011;5712;48.858;9.206;2023-09-19T08:22:05;2.00;;;1.40;;
11313;SDS011;5712;48.858;9.206;2023-09-19T08:24:35;2.80;;;1.40;;
11313;SDS011;5712;48.858;9.206;2023-09-19T08:27:03;2.20;;;1.30;;
11313;SDS011;5712;48.858;9.206;2023-09-19T08:29:31;1.87;;;1.40;;
11313;SDS011;5712;48.858;9.206;2023-09-19T08:31:57;1.47;;;1.10;;
11313;SDS011;5712;48.858;9.206;2023-09-19T08:34:24;2.03;;;1.20;;
11313;SDS011;5712;48.858;9.206;2023-09-19T08:36:53;2.30;;;1.10;;
11313;SDS011;5712;48.858;9.206;2023-09-19T08:39:21;1.97;;;1.10;;
11313;SDS011;5712;48.858;9.206;2023-09-19T08:41:48;2.23;;;1.30;;
11313;SDS011;5712;48.858;9.206;2023-09-19T08:44:14;2.63;;;1.20;;
11313;SDS011;5712;48.858;9.206;2023-09-19T08:46:42;1.80;;;1.00;;
11313;SDS011;5712;48.858;9.206;2023-09-19T08:49:13;2.03;;;1.20;;
11313;SDS011;5712;48.858;9.206;2023-09-19T08:51:47;1.80;;;1.20;;
11313;SDS011;5712;48.858;9.206;2023-09-19T08:54:29;1.80;;;1.20;;
11313;SDS011;5712;48.858;9.206;2023-09-19T08:57:05;2.00;;;1.27;;
11313;SDS011;5712;48.858;9.206;2023-09-19T08:59:35;1.80;;;1.40;;
11313;SDS011;5712;48.858;9.206;2023-09-19T09:02:05;1.70;;;1.20;;
11313;SDS011;5712;48.858;9.206;2023-09-19T09:04:38;1.20;;;1.00;;
11313;SDS011;5712;48.858;9.206;2023-09-19T09:07:07;1.53;;;1.17;;
11313;SDS011;5712;48.858;9.206;2023-09-19T09:09:44;1.27;;;1.00;;
11313;SDS011;5712;48.858;9.206;2023-09-19T09:12:12;2.93;;;1.33;;
11313;SDS011;5712;48.858;9.206;2023-09-19T09:14:40;1.80;;;1.23;;
11313;SDS011;5712;48.858;9.206;2023-09-19T09:17:10;1.40;;;1.20;;
11313;SDS011;5712;48.858;9.206;2023-09-19T09:19:37;2.83;;;1.10;;
11313;SDS011;5712;48.858;9.206;2023-09-19T09:22:07;1.67;;;1.07;;
11313;SDS011;5712;48.858;9.206;2023-09-19T09:24:34;1.47;;;1.20;;
11313;SDS011;5712;48.858;9.206;2023-09-19T09:27:05;2.17;;;0.97;;
11313;SDS011;5712;48.858;9.206;2023-09-19T09:29:43;1.27;;;0.97;;
11313;SDS011;5712;48.858;9.206;2023-09-19T09:32:18;1.60;;;1.20;;
11313;SDS011;5712;48.858;9.206;2023-09-19T09:34:47;1.43;;;1.00;;
11313;SDS011;5712;48.858;9.206;2023-09-19T09:37:16;1.53;;;1.10;;
11313;SDS011;5712;48.858;9.206;2023-09-19T09:39:48;1.47;;;1.10;;
11313;SDS011;5712;48.858;9.206;2023-09-19T09:42:29;1.90;;;1.13;;
11313;SDS011;5712;48.858;9.206;2023-09-19T09:45:15;1.30;;;0.90;;
11313;SDS011;5712;48.858;9.206;2023-09-19T09:47:43;1.77;;;1.20;;
11313;SDS011;5712;48.858;9.206;2023-09-19T09:50:27;1.60;;;1.10;;
11313;SDS011;5712;48.858;9.206;2023-09-19T09:53:04;2.03;;;1.20;;
11313;SDS011;5712;48.858;9.206;2023-09-19T09:55:59;0.80;;;0.80;;
11313;SDS011;5712;48.858;9.206;2023-09-19T09:58:33;1.00;;;0.90;;
11313;SDS011;5712;48.858;9.206;2023-09-19T10:01:00;1.57;;;0.90;;
11313;SDS011;5712;48.858;9.206;2023-09-19T10:03:33;2.23;;;1.07;;
11313;SDS011;5712;48.858;9.206;2023-09-19T10:06:05;2.07;;;1.13;;
11313;SDS011;5712;48.858;9.206;2023-09-19T10:08:59;1.20;;;0.87;;
11313;SDS011;5712;48.858;9.206;2023-09-19T10:11:30;2.00;;;1.00;;
11313;SDS011;5712;48.858;9.206;2023-09-19T10:13:59;1.00;;;0.80;;
11313;SDS011;5712;48.858;9.206;2023-09-19T10:16:31;1.87;;;1.00;;
11313;SDS011;5712;48.858;9.206;2023-09-19T10:19:01;1.20;;;1.00;;
11313;SDS011;5712;48.858;9.206;2023-09-19T10:21:31;3.10;;;1.17;;
11313;SDS011;5712;48.858;9.206;2023-09-19T10:23:58;2.53;;;0.90;;
11313;SDS011;5712;48.858;9.206;2023-09-19T10:26:25;1.30;;;0.90;;
11313;SDS011;5712;48.858;9.206;2023-09-19T10:28:56;1.90;;;0.93;;
11313;SDS011;5712;48.858;9.206;2023-09-19T10:33:54;1.20;;;0.97;;
11313;SDS011;5712;48.858;9.206;2023-09-19T10:36:21;1.67;;;0.90;;
11313;SDS011;5712;48.858;9.206;2023-09-19T10:38:51;1.42;;;1.05;;
11313;SDS011;5712;48.858;9.206;2023-09-19T10:41:20;1.10;;;0.87;;
11313;SDS011;5712;48.858;9.206;2023-09-19T10:43:48;1.73;;;1.10;;
11313;SDS011;5712;48.858;9.206;2023-09-19T10:46:16;1.30;;;0.90;;
11313;SDS011;5712;48.858;9.206;2023-09-19T10:48:42;1.37;;;1.17;;
11313;SDS011;5712;48.858;9.206;2023-09-19T10:51:14;1.80;;;0.90;;
11313;SDS011;5712;48.858;9.206;2023-09-19T10:53:48;3.57;;;1.20;;
11313;SDS011;5712;48.858;9.206;2023-09-19T10:56:19;1.13;;;0.90;;
11313;SDS011;5712;48.858;9.206;2023-09-19T10:58:53;3.90;;;1.10;;
11313;SDS011;5712;48.858;9.206;2023-09-19T11:01:42;1.10;;;1.00;;
11313;SDS011;5712;48.858;9.206;2023-09-19T11:04:21;1.50;;;1.10;;
11313;SDS011;5712;48.858;9.206;2023-09-19T11:07:02;1.23;;;1.03;;
11313;SDS011;5712;48.858;9.206;2023-09-19T11:09:43;2.13;;;1.00;;
11313;SDS011;5712;48.858;9.206;2023-09-19T11:12:12;1.77;;;0.90;;
11313;SDS011;5712;48.858;9.206;2023-09-19T11:14:39;1.57;;;1.07;;
11313;SDS011;5712;48.858;9.206;2023-09-19T11:25:49;0.97;;;0.80;;
11313;SDS011;5712;48.858;9.206;2023-09-19T11:28:27;1.87;;;0.97;;
11313;SDS011;5712;48.858;9.206;2023-09-19T11:30:57;2.03;;;1.00;;
11313;SDS011;5712;48.858;9.206;2023-09-19T11:33:26;1.63;;;0.93;;
11313;SDS011;5712;48.858;9.206;2023-09-19T11:35:58;3.23;;;1.20;;
11313;SDS011;5712;48.858;9.206;2023-09-19T11:41:36;2.40;;;0.93;;
11313;SDS011;5712;48.858;9.206;2023-09-19T11:47:04;2.20;;;1.23;;
11313;SDS011;5712;48.858;9.206;2023-09-19T11:49:33;1.37;;;0.97;;
11313;SDS011;5712;48.858;9.206;2023-09-19T11:52:02;1.47;;;1.00;;
11313;SDS011;5712;48.858;9.206;2023-09-19T11:54:32;1.37;;;1.03;;
11313;SDS011;5712;48.858;9.206;2023-09-19T11:56:59;1.83;;;1.10;;
11313;SDS011;5712;48.858;9.206;2023-09-19T11:59:27;1.07;;;0.97;;
11313;SDS011;5712;48.858;9.206;2023-09-19T12:01:56;1.83;;;1.00;;
11313;SDS011;5712;48.858;9.206;2023-09-19T12:04:35;3.33;;;0.83;;
11313;SDS011;5712;48.858;9.206;2023-09-19T12:07:03;1.67;;;0.90;;
11313;SDS011;5712;48.858;9.206;2023-09-19T12:09:35;1.30;;;1.00;;
11313;SDS011;5712;48.858;9.206;2023-09-19T12:12:02;1.20;;;0.90;;
11313;SDS011;5712;48.858;9.206;2023-09-19T12:14:29;1.33;;;1.20;;
11313;SDS011;5712;48.858;9.206;2023-09-19T12:16:56;1.80;;;0.90;;
11313;SDS011;5712;48.858;9.206;2023-09-19T12:19:26;1.30;;;1.03;;
11313;SDS011;5712;48.858;9.206;2023-09-19T12:21:55;1.20;;;1.00;;
11313;SDS011;5712;48.858;9.206;2023-09-19T12:24:24;1.20;;;1.03;;
11313;SDS011;5712;48.858;9.206;2023-09-19T12:26:51;1.00;;;0.90;;
11313;SDS011;5712;48.858;9.206;2023-09-19T12:29:19;1.27;;;0.90;;
11313;SDS011;5712;48.858;9.206;2023-09-19T12:31:50;1.40;;;0.90;;
11313;SDS011;5712;48.858;9.206;2023-09-19T12:34:23;1.50;;;1.10;;
11313;SDS011;5712;48.858;9.206;2023-09-19T12:39:41;1.50;;;1.00;;
11313;SDS011;5712;48.858;9.206;2023-09-19T12:42:09;1.00;;;0.87;;
11313;SDS011;5712;48.858;9.206;2023-09-19T12:44:39;1.57;;;1.10;;
11313;SDS011;5712;48.858;9.206;2023-09-19T12:47:08;1.00;;;0.73;;
11313;SDS011;5712;48.858;9.206;2023-09-19T12:52:37;1.57;;;0.90;;
11313;SDS011;5712;48.858;9.206;2023-09-19T12:55:05;0.97;;;0.80;;
11313;SDS011;5712;48.858;9.206;2023-09-19T12:57:33;1.57;;;1.00;;
11313;SDS011;5712;48.858;9.206;2023-09-19T13:00:00;1.07;;;0.80;;
11313;SDS011;5712;48.858;9.206;2023-09-19T13:02:27;2.30;;;0.93;;
11313;SDS011;5712;48.858;9.206;2023-09-19T13:04:53;1.27;;;0.90;;
11313;SDS011;5712;48.858;9.206;2023-09-19T13:07:42;1.03;;;0.80;;
11313;SDS011;5712;48.858;9.206;2023-09-19T13:10:10;1.30;;;0.97;;
11313;SDS011;5712;48.858;9.206;2023-09-19T13:12:41;1.10;;;0.80;;
11313;SDS011;5712;48.858;9.206;2023-09-19T13:15:12;1.60;;;1.00;;
11313;SDS011;5712;48.858;9.206;2023-09-19T13:17:45;0.97;;;0.90;;
11313;SDS011;5712;48.858;9.206;2023-09-19T13:20:22;1.00;;;0.87;;
11313;SDS011;5712;48.858;9.206;2023-09-19T13:22:55;1.60;;;0.90;;
11313;SDS011;5712;48.858;9.206;2023-09-19T13:25:25;1.90;;;0.90;;
11313;SDS011;5712;48.858;9.206;2023-09-19T13:27:54;0.90;;;0.90;;
11313;SDS011;5712;48.858;9.206;2023-09-19T13:30:22;2.50;;;1.10;;
11313;SDS011;5712;48.858;9.206;2023-09-19T13:32:50;1.43;;;0.90;;
11313;SDS011;5712;48.858;9.206;2023-09-19T13:35:18;2.20;;;1.00;;
11313;SDS011;5712;48.858;9.206;2023-09-19T13:37:45;1.80;;;1.00;;
11313;SDS011;5712;48.858;9.206;2023-09-19T13:40:18;1.10;;;1.00;;
11313;SDS011;5712;48.858;9.206;2023-09-19T13:42:44;1.10;;;0.97;;
11313;SDS011;5712;48.858;9.206;2023-09-19T13:45:10;1.53;;;0.90;;
11313;SDS011;5712;48.858;9.206;2023-09-19T13:47:40;1.23;;;1.13;;
11313;SDS011;5712;48.858;9.206;2023-09-19T13:50:07;1.67;;;1.10;;
11313;SDS011;5712;48.858;9.206;2023-09-19T13:52:34;1.07;;;0.90;;
11313;SDS011;5712;48.858;9.206;2023-09-19T13:55:01;2.03;;;1.20;;
11313;SDS011;5712;48.858;9.206;2023-09-19T13:57:29;0.83;;;0.80;;
11313;SDS011;5712;48.858;9.206;2023-09-19T13:59:55;1.10;;;1.00;;
11313;SDS011;5712;48.858;9.206;2023-09-19T14:02:22;1.83;;;1.00;;
11313;SDS011;5712;48.858;9.206;2023-09-19T14:04:49;2.10;;;0.80;;
11313;SDS011;5712;48.858;9.206;2023-09-19T14:07:16;2.13;;;1.20;;
11313;SDS011;5712;48.858;9.206;2023-09-19T14:09:45;1.17;;;1.00;;
11313;SDS011;5712;48.858;9.206;2023-09-19T14:12:11;0.90;;;0.90;;
11313;SDS011;5712;48.858;9.206;2023-09-19T14:14:39;1.33;;;1.00;;
11313;SDS011;5712;48.858;9.206;2023-09-19T14:17:13;1.00;;;0.73;;
11313;SDS011;5712;48.858;9.206;2023-09-19T14:19:40;1.00;;;0.87;;
11313;SDS011;5712;48.858;9.206;2023-09-19T14:22:08;1.17;;;1.00;;
11313;SDS011;5712;48.858;9.206;2023-09-19T14:24:36;1.43;;;1.00;;
11313;SDS011;5712;48.858;9.206;2023-09-19T14:27:02;2.20;;;0.97;;
11313;SDS011;5712;48.858;9.206;2023-09-19T14:29:32;1.07;;;0.90;;
11313;SDS011;5712;48.858;9.206;2023-09-19T14:31:59;1.30;;;1.00;;
11313;SDS011;5712;48.858;9.206;2023-09-19T14:34:26;1.00;;;0.83;;
11313;SDS011;5712;48.858;9.206;2023-09-19T14:36:53;1.07;;;0.90;;
11313;SDS011;5712;48.858;9.206;2023-09-19T14:39:19;1.23;;;1.00;;
11313;SDS011;5712;48.858;9.206;2023-09-19T14:41:46;1.30;;;1.00;;
11313;SDS011;5712;48.858;9.206;2023-09-19T14:44:12;1.20;;;0.90;;
11313;SDS011;5712;48.858;9.206;2023-09-19T14:46:41;1.50;;;1.10;;
11313;SDS011;5712;48.858;9.206;2023-09-19T14:49:09;0.70;;;0.70;;
11313;SDS011;5712;48.858;9.206;2023-09-19T14:51:37;1.23;;;1.00;;
11313;SDS011;5712;48.858;9.206;2023-09-19T14:54:04;1.57;;;1.13;;
11313;SDS011;5712;48.858;9.206;2023-09-19T14:56:33;0.80;;;0.80;;
11313;SDS011;5712;48.858;9.206;2023-09-19T14:58:59;1.40;;;1.03;;
11313;SDS011;5712;48.858;9.206;2023-09-19T15:01:26;1.52;;;1.10;;
11313;SDS011;5712;48.858;9.206;2023-09-19T15:03:52;1.03;;;0.90;;
11313;SDS011;5712;48.858;9.206;2023-09-19T15:06:21;1.50;;;1.10;;
11313;SDS011;5712;48.858;9.206;2023-09-19T15:08:48;1.07;;;0.90;;
11313;SDS011;5712;48.858;9.206;2023-09-19T15:11:16;1.17;;;0.77;;
11313;SDS011;5712;48.858;9.206;2023-09-19T15:13:43;0.77;;;0.70;;
11313;SDS011;5712;48.858;9.206;2023-09-19T15:16:10;1.07;;;0.83;;
11313;SDS011;5712;48.858;9.206;2023-09-19T15:18:38;1.33;;;0.87;;
11313;SDS011;5712;48.858;9.206;2023-09-19T15:21:07;1.10;;;1.00;;
11313;SDS011;5712;48.858;9.206;2023-09-19T15:23:37;1.43;;;0.90;;
11313;SDS011;5712;48.858;9.206;2023-09-19T15:26:04;1.23;;;0.90;;
11313;SDS011;5712;48.858;9.206;2023-09-19T15:28:31;1.47;;;1.07;;
11313;SDS011;5712;48.858;9.206;2023-09-19T15:30:59;2.17;;;1.10;;
11313;SDS011;5712;48.858;9.206;2023-09-19T15:33:26;1.20;;;1.10;;
11313;SDS011;5712;48.858;9.206;2023-09-19T15:35:59;1.97;;;0.90;;